createdAt,value
2023-04-13T00:00:10.942Z,72.00
2023-04-13T00:02:39.347Z,71.83
2023-04-13T00:05:09.287Z,71.84
2023-04-13T00:07:39.222Z,72.35
2023-04-13T00:10:08.707Z,72.14
2023-04-13T00:12:40.983Z,72.94
2023-04-13T00:15:09.767Z,73.01
2023-04-13T00:17:38.002Z,73.11
2023-04-13T00:20:08.926Z,73.06
2023-04-13T00:22:38.147Z,73.36
2023-04-13T00:25:06.716Z,72.77
2023-04-13T00:27:34.499Z,73.02
2023-04-13T00:30:07.433Z,73.10
2023-04-13T00:32:35.662Z,73.41
2023-04-13T00:35:03.726Z,73.32
2023-04-13T00:37:32.702Z,74.29
2023-04-13T00:40:00.773Z,74.90
2023-04-13T00:42:28.524Z,75.45
2023-04-13T00:44:56.625Z,76.27
2023-04-13T00:47:28.781Z,76.97
2023-04-13T00:49:58.239Z,77.18
2023-04-13T00:52:25.999Z,77.99
2023-04-13T00:54:56.249Z,77.92
2023-04-13T00:57:25.821Z,78.00
2023-04-13T00:59:53.650Z,78.21
2023-04-13T01:02:23.069Z,78.30
2023-04-13T01:04:54.720Z,78.39
2023-04-13T01:07:29.136Z,77.98
2023-04-13T01:10:01.701Z,78.27
2023-04-13T01:12:35.555Z,78.14
2023-04-13T01:15:08.804Z,77.51
2023-04-13T01:17:39.666Z,77.67
2023-04-13T01:20:12.635Z,77.63
2023-04-13T01:22:45.724Z,77.69
2023-04-13T01:25:28.529Z,77.23
2023-04-13T01:28:02.109Z,77.43
2023-04-13T01:30:31.549Z,77.24
2023-04-13T01:33:02.265Z,76.57
2023-04-13T01:35:31.653Z,76.75
2023-04-13T01:37:59.822Z,76.89
2023-04-13T01:40:29.294Z,76.74
2023-04-13T01:42:58.803Z,76.95
2023-04-13T01:45:28.514Z,76.89
2023-04-13T01:48:04.655Z,76.22
2023-04-13T01:50:35.966Z,76.37
2023-04-13T01:53:08.336Z,75.99
2023-04-13T01:55:38.526Z,75.51
2023-04-13T01:58:10.331Z,75.61
2023-04-13T02:00:38.777Z,76.06
2023-04-13T02:03:08.248Z,76.08
2023-04-13T02:05:37.380Z,76.30
2023-04-13T02:08:06.512Z,76.49
2023-04-13T02:10:35.365Z,76.69
2023-04-13T02:13:04.115Z,77.11
2023-04-13T02:15:35.993Z,77.38
2023-04-13T02:18:04.660Z,77.97
2023-04-13T02:20:38.718Z,78.34
2023-04-13T02:23:08.311Z,78.24
2023-04-13T02:25:37.752Z,78.74
2023-04-13T02:28:05.911Z,78.77
2023-04-13T02:30:35.104Z,78.66
2023-04-13T02:33:02.997Z,79.06
2023-04-13T02:35:30.914Z,78.61
2023-04-13T02:37:59.054Z,78.15
2023-04-13T02:40:28.418Z,78.68
2023-04-13T02:42:57.340Z,77.86
2023-04-13T02:45:25.296Z,77.96
2023-04-13T02:47:54.464Z,77.66
2023-04-13T02:50:22.597Z,77.40
2023-04-13T02:52:50.355Z,76.42
2023-04-13T02:55:18.186Z,76.95
2023-04-13T02:57:45.990Z,76.29
2023-04-13T03:00:16.179Z,76.08
2023-04-13T03:02:44.824Z,76.04
2023-04-13T03:05:14.857Z,76.63
2023-04-13T03:07:42.542Z,76.59
2023-04-13T03:10:11.414Z,76.05
2023-04-13T03:12:39.668Z,76.46
2023-04-13T03:15:11.115Z,76.35
2023-04-13T03:17:41.448Z,76.54
2023-04-13T03:20:12.821Z,76.13
2023-04-13T03:22:42.140Z,76.92
2023-04-13T03:25:10.328Z,77.80
2023-04-13T03:27:38.223Z,78.63
2023-04-13T03:30:07.497Z,79.33
2023-04-13T03:32:36.566Z,79.39
2023-04-13T03:35:04.573Z,79.77
2023-04-13T03:37:40.095Z,79.62
2023-04-13T03:40:11.215Z,79.91
2023-04-13T03:42:39.481Z,80.00
2023-04-13T03:45:07.858Z,80.23
2023-04-13T03:47:36.119Z,80.23
2023-04-13T03:50:04.055Z,80.40
2023-04-13T03:52:32.040Z,79.78
2023-04-13T03:54:59.885Z,80.30
2023-04-13T03:57:29.581Z,80.06
2023-04-13T03:59:57.537Z,80.38
2023-04-13T04:02:25.557Z,81.08
2023-04-13T04:04:54.051Z,81.12
2023-04-13T04:07:23.766Z,80.82
2023-04-13T04:09:51.577Z,81.00
2023-04-13T04:12:19.355Z,80.86
2023-04-13T04:14:48.562Z,81.51
2023-04-13T04:17:16.353Z,81.93
2023-04-13T04:19:44.171Z,82.44
2023-04-13T04:22:14.008Z,82.84
2023-04-13T04:24:42.385Z,83.36
2023-04-13T04:27:10.193Z,83.81
2023-04-13T04:29:38.200Z,83.64
2023-04-13T04:32:11.008Z,84.04
2023-04-13T04:34:40.896Z,83.40
2023-04-13T04:37:19.762Z,83.70
2023-04-13T04:39:48.792Z,83.77
2023-04-13T04:42:18.789Z,83.42
2023-04-13T04:44:49.733Z,83.55
2023-04-13T04:47:19.533Z,83.78
2023-04-13T04:49:47.242Z,83.41
2023-04-13T04:52:15.003Z,83.33
2023-04-13T04:54:42.882Z,83.56
2023-04-13T04:57:12.372Z,83.17
2023-04-13T04:59:40.915Z,83.35
2023-04-13T05:02:09.194Z,84.18
2023-04-13T05:04:40.155Z,84.13
2023-04-13T05:07:08.994Z,84.34
2023-04-13T05:09:38.779Z,84.20
2023-04-13T05:12:07.551Z,84.92
2023-04-13T05:14:35.746Z,84.47
2023-04-13T05:17:04.243Z,84.92
2023-04-13T05:19:35.077Z,84.48
2023-04-13T05:22:04.920Z,83.75
2023-04-13T05:24:33.624Z,84.29
2023-04-13T05:27:01.546Z,84.35
2023-04-13T05:29:29.490Z,84.08
2023-04-13T05:32:00.019Z,84.24
2023-04-13T05:34:28.461Z,84.39
2023-04-13T05:36:58.029Z,84.26
2023-04-13T05:39:27.530Z,83.69
2023-04-13T05:41:56.009Z,82.92
2023-04-13T05:44:23.816Z,82.74
2023-04-13T05:46:51.639Z,82.01
2023-04-13T05:49:19.474Z,81.95
2023-04-13T05:51:47.770Z,82.25
2023-04-13T05:54:17.431Z,82.31
2023-04-13T05:56:47.348Z,82.02
2023-04-13T05:59:18.427Z,82.00
2023-04-13T06:01:46.301Z,81.54
2023-04-13T06:04:15.890Z,81.50
2023-04-13T06:06:44.968Z,81.26
2023-04-13T06:09:13.293Z,81.22
2023-04-13T06:11:41.729Z,81.45
2023-04-13T06:14:10.896Z,80.16
2023-04-13T06:16:38.748Z,80.92
2023-04-13T06:19:06.579Z,80.56
2023-04-13T06:21:34.542Z,80.15
2023-04-13T06:24:02.370Z,80.55
2023-04-13T06:26:30.567Z,80.27
2023-04-13T06:28:58.609Z,79.76
2023-04-13T06:31:28.447Z,79.71
2023-04-13T06:33:56.870Z,79.31
2023-04-13T06:36:24.811Z,78.70
2023-04-13T06:38:53.120Z,78.42
2023-04-13T06:41:21.023Z,78.03
2023-04-13T06:43:48.806Z,78.02
2023-04-13T06:46:17.753Z,77.46
2023-04-13T06:48:49.833Z,77.64
2023-04-13T06:51:17.672Z,77.04
2023-04-13T06:53:45.514Z,77.11
2023-04-13T06:56:13.362Z,76.88
2023-04-13T06:58:41.146Z,76.47
2023-04-13T07:01:09.326Z,75.84
2023-04-13T07:03:37.528Z,75.65
2023-04-13T07:06:08.587Z,74.70
2023-04-13T07:08:37.022Z,74.34
2023-04-13T07:11:04.961Z,73.41
2023-04-13T07:13:32.786Z,73.54
2023-04-13T07:16:00.681Z,73.68
2023-04-13T07:18:28.475Z,73.70
2023-04-13T07:20:56.843Z,73.59
2023-04-13T07:23:25.985Z,74.12
2023-04-13T07:25:54.139Z,74.00
2023-04-13T07:28:21.876Z,73.59
2023-04-13T07:30:49.633Z,74.46
2023-04-13T07:33:17.545Z,74.63
2023-04-13T07:35:45.415Z,74.51
2023-04-13T07:38:13.154Z,73.94
2023-04-13T07:40:42.386Z,73.87
2023-04-13T07:43:10.064Z,73.94
2023-04-13T07:45:38.054Z,73.80
2023-04-13T07:48:06.773Z,74.58
2023-04-13T07:50:35.312Z,74.74
2023-04-13T07:53:03.128Z,74.48
2023-04-13T07:55:30.893Z,73.97
2023-04-13T07:58:00.668Z,74.37
2023-04-13T08:00:28.502Z,73.56
2023-04-13T08:02:56.654Z,73.99
2023-04-13T08:05:24.631Z,74.11
2023-04-13T08:07:52.973Z,74.54
2023-04-13T08:10:20.922Z,74.13
2023-04-13T08:12:48.631Z,74.01
2023-04-13T08:15:17.940Z,73.81
2023-04-13T08:17:46.765Z,74.73
2023-04-13T08:20:15.980Z,74.57
2023-04-13T08:22:45.573Z,74.20
2023-04-13T08:25:13.690Z,73.71
2023-04-13T08:27:41.425Z,74.01
2023-04-13T08:30:11.675Z,73.46
2023-04-13T08:32:41.139Z,73.92
2023-04-13T08:35:10.398Z,74.59
2023-04-13T08:37:39.844Z,74.17
2023-04-13T08:40:11.967Z,73.78
2023-04-13T08:42:40.007Z,74.00
2023-04-13T08:45:09.183Z,72.92
2023-04-13T08:47:37.496Z,73.76
2023-04-13T08:50:07.736Z,73.35
2023-04-13T08:52:36.996Z,73.46
2023-04-13T08:55:06.252Z,72.78
2023-04-13T08:57:35.700Z,72.20
2023-04-13T09:00:10.331Z,71.66
2023-04-13T09:02:46.659Z,71.54
2023-04-13T09:05:30.778Z,71.48
2023-04-13T09:08:03.718Z,70.58
2023-04-13T09:10:31.513Z,69.94
2023-04-13T09:12:59.569Z,69.30
2023-04-13T09:15:27.453Z,69.31
2023-04-13T09:17:56.214Z,68.17
2023-04-13T09:20:24.816Z,67.01
2023-04-13T09:22:53.967Z,66.92
2023-04-13T09:25:23.605Z,66.62
2023-04-13T09:27:52.914Z,66.47
2023-04-13T09:30:22.301Z,66.72
2023-04-13T09:33:04.006Z,65.97
2023-04-13T09:35:32.361Z,65.27
2023-04-13T09:38:01.834Z,65.82
2023-04-13T09:40:30.799Z,65.84
2023-04-13T09:43:00.685Z,66.15
2023-04-13T09:45:35.680Z,66.45
2023-04-13T09:48:03.965Z,66.99
2023-04-13T09:50:33.924Z,66.19
2023-04-13T09:53:04.472Z,66.40
2023-04-13T09:55:33.949Z,66.84
2023-04-13T09:58:10.361Z,66.15
2023-04-13T10:00:39.075Z,66.46
2023-04-13T10:03:11.865Z,66.67
2023-04-13T10:05:55.402Z,65.27
2023-04-13T10:08:37.390Z,66.14
2023-04-13T10:11:11.722Z,65.05
2023-04-13T10:13:45.963Z,65.60
2023-04-13T10:16:44.521Z,64.19
2023-04-13T10:19:13.755Z,64.10
2023-04-13T10:21:45.482Z,64.73
2023-04-13T10:24:15.157Z,63.48
2023-04-13T10:26:44.978Z,62.60
2023-04-13T10:29:14.797Z,61.08
2023-04-13T10:31:46.782Z,61.39
2023-04-13T10:34:24.477Z,60.25
2023-04-13T10:36:55.126Z,58.91
2023-04-13T10:39:29.182Z,58.44
2023-04-13T10:42:01.414Z,58.37
2023-04-13T10:44:29.737Z,58.51
2023-04-13T10:46:59.128Z,57.84
2023-04-13T10:49:36.031Z,57.71
2023-04-13T10:52:03.817Z,57.21
2023-04-13T10:54:35.884Z,57.66
2023-04-13T10:57:06.587Z,56.61
2023-04-13T10:59:56.378Z,56.89
2023-04-13T11:02:27.243Z,57.40
2023-04-13T11:04:55.628Z,58.06
2023-04-13T11:07:26.079Z,55.99
2023-04-13T11:10:02.742Z,57.28
2023-04-13T11:12:31.374Z,56.68
2023-04-13T11:14:59.227Z,56.69
2023-04-13T11:17:27.089Z,56.58
2023-04-13T11:19:57.601Z,55.32
2023-04-13T11:22:27.932Z,54.67
2023-04-13T11:25:09.293Z,55.72
2023-04-13T11:27:38.088Z,55.02
2023-04-13T11:30:08.488Z,54.63
2023-04-13T11:32:39.336Z,54.35
2023-04-13T11:35:09.123Z,53.69
2023-04-13T11:37:37.820Z,53.74
2023-04-13T11:40:20.259Z,53.40
2023-04-13T11:42:49.225Z,54.08
2023-04-13T11:45:19.052Z,53.98
2023-04-13T11:47:48.707Z,53.91
2023-04-13T11:50:17.602Z,52.71
2023-04-13T11:52:46.499Z,53.29
2023-04-13T11:55:23.722Z,54.12
2023-04-13T11:57:52.883Z,53.95
2023-04-13T12:00:24.453Z,51.02
2023-04-13T12:03:01.966Z,52.15
2023-04-13T12:05:33.158Z,51.28
2023-04-13T12:08:04.842Z,51.01
2023-04-13T12:10:41.363Z,50.80
2023-04-13T12:16:04.972Z,50.79
2023-04-13T12:18:37.271Z,50.67
2023-04-13T12:21:06.505Z,49.87
2023-04-13T12:23:34.415Z,49.82
2023-04-13T12:26:25.937Z,49.39
2023-04-13T12:31:25.453Z,48.86
2023-04-13T12:33:53.214Z,49.60
2023-04-13T12:36:21.071Z,49.18
2023-04-13T12:38:48.932Z,48.65
2023-04-13T12:41:18.106Z,49.97
2023-04-13T12:43:45.849Z,48.99
2023-04-13T12:46:13.570Z,49.64
2023-04-13T12:48:41.334Z,47.87
2023-04-13T12:51:09.122Z,48.43
2023-04-13T12:53:37.310Z,48.10
2023-04-13T12:56:05.445Z,46.99
2023-04-13T12:58:35.557Z,47.20
2023-04-13T13:01:04.107Z,47.60
2023-04-13T13:03:31.993Z,47.73
2023-04-13T13:05:59.774Z,47.41
2023-04-13T13:08:27.547Z,46.58
2023-04-13T13:10:55.457Z,46.21
2023-04-13T13:13:23.338Z,47.00
2023-04-13T13:15:52.887Z,45.95
2023-04-13T13:18:20.799Z,44.85
2023-04-13T13:20:49.346Z,44.88
2023-04-13T13:23:17.155Z,45.22
2023-04-13T13:25:52.745Z,43.99
2023-04-13T13:28:32.199Z,44.46
2023-04-13T13:31:01.788Z,44.25
2023-04-13T13:33:29.751Z,44.46
2023-04-13T13:35:57.718Z,44.23
2023-04-13T13:38:25.800Z,43.89
2023-04-13T13:40:53.696Z,43.37
2023-04-13T13:43:22.347Z,43.44
2023-04-13T13:45:50.279Z,44.36
2023-04-13T13:48:21.911Z,43.56
2023-04-13T13:50:50.186Z,44.83
2023-04-13T13:53:18.048Z,44.53
2023-04-13T13:55:46.712Z,44.92
2023-04-13T13:58:14.574Z,44.41
2023-04-13T14:00:42.438Z,44.27
2023-04-13T14:03:12.626Z,44.13
2023-04-13T14:05:44.349Z,43.54
2023-04-13T14:08:12.195Z,43.27
2023-04-13T14:10:40.324Z,43.36
2023-04-13T14:13:08.199Z,42.95
2023-04-13T14:15:36.097Z,43.48
2023-04-13T14:18:10.605Z,44.09
2023-04-13T14:20:41.563Z,44.95
2023-04-13T14:23:10.139Z,44.32
2023-04-13T14:25:38.945Z,43.35
2023-04-13T14:28:09.037Z,43.93
2023-04-13T14:30:37.144Z,42.81
2023-04-13T14:33:05.847Z,41.79
2023-04-13T14:35:34.038Z,41.41
2023-04-13T14:38:03.304Z,41.27
2023-04-13T14:40:32.004Z,40.97
2023-04-13T14:42:59.863Z,41.17
2023-04-13T14:45:28.792Z,40.93
2023-04-13T14:47:56.817Z,41.08
2023-04-13T14:50:24.918Z,41.75
2023-04-13T14:52:52.912Z,41.82
2023-04-13T14:55:22.920Z,41.72
2023-04-13T14:57:50.980Z,41.78
2023-04-13T15:00:22.465Z,41.43
2023-04-13T15:02:52.765Z,41.60
2023-04-13T15:05:21.817Z,41.43
2023-04-13T15:07:50.874Z,41.39
2023-04-13T15:10:19.289Z,41.39
2023-04-13T15:12:49.199Z,42.43
2023-04-13T15:15:17.487Z,41.95
2023-04-13T15:17:48.222Z,41.63
2023-04-13T15:20:16.151Z,41.92
2023-04-13T15:22:44.351Z,41.01
2023-04-13T15:25:12.387Z,41.29
2023-04-13T15:27:40.449Z,40.79
2023-04-13T15:30:11.228Z,39.56
2023-04-13T15:32:40.943Z,38.88
2023-04-13T15:35:09.447Z,38.43
2023-04-13T15:37:38.041Z,38.10
2023-04-13T15:40:08.151Z,38.50
2023-04-13T15:42:36.484Z,39.18
2023-04-13T15:45:05.468Z,39.07
2023-04-13T15:47:35.022Z,38.00
2023-04-13T15:50:04.196Z,37.83
2023-04-13T15:52:32.639Z,38.40
2023-04-13T15:55:00.653Z,37.98
2023-04-13T15:57:28.718Z,38.79
2023-04-13T15:59:57.654Z,38.25
2023-04-13T16:02:26.229Z,37.81
2023-04-13T16:04:55.958Z,38.47
2023-04-13T16:07:24.125Z,38.31
2023-04-13T16:09:56.489Z,37.59
2023-04-13T16:12:26.562Z,37.86
2023-04-13T16:14:56.135Z,37.03
2023-04-13T16:17:31.645Z,37.63
2023-04-13T16:20:18.356Z,37.66
2023-04-13T16:22:49.256Z,38.19
2023-04-13T16:25:19.306Z,38.08
2023-04-13T16:27:50.834Z,38.05
2023-04-13T16:30:20.878Z,37.84
2023-04-13T16:32:55.035Z,38.85
2023-04-13T16:35:26.020Z,37.82
2023-04-13T16:37:56.810Z,37.66
2023-04-13T16:40:24.833Z,37.96
2023-04-13T16:42:53.245Z,38.39
2023-04-13T16:45:21.686Z,38.83
2023-04-13T16:47:50.127Z,38.83
2023-04-13T16:50:18.084Z,38.17
2023-04-13T16:52:47.852Z,37.84
2023-04-13T16:55:15.843Z,37.67
2023-04-13T16:57:44.758Z,38.43
2023-04-13T17:00:14.911Z,38.55
2023-04-13T17:02:43.826Z,38.49
2023-04-13T17:05:14.007Z,38.49
2023-04-13T17:07:43.977Z,38.67
2023-04-13T17:10:15.001Z,38.88
2023-04-13T17:12:43.873Z,37.96
2023-04-13T17:15:12.475Z,38.47
2023-04-13T17:17:40.503Z,38.12
2023-04-13T17:20:10.187Z,38.42
2023-04-13T17:22:38.686Z,38.50
2023-04-13T17:25:08.579Z,37.78
2023-04-13T17:27:38.374Z,37.72
2023-04-13T17:30:10.309Z,37.78
2023-04-13T17:32:38.475Z,36.75
2023-04-13T17:35:07.360Z,36.85
2023-04-13T17:37:35.387Z,37.29
2023-04-13T17:40:04.216Z,37.74
2023-04-13T17:42:32.213Z,36.74
2023-04-13T17:45:01.794Z,36.92
2023-04-13T17:47:29.745Z,37.05
2023-04-13T17:50:00.106Z,37.12
2023-04-13T17:52:29.525Z,36.78
2023-04-13T17:54:57.593Z,37.25
2023-04-13T17:57:25.829Z,37.12
2023-04-13T17:59:56.094Z,37.30
2023-04-13T18:02:25.941Z,38.10
2023-04-13T18:04:58.133Z,37.49
2023-04-13T18:07:26.794Z,37.69
2023-04-13T18:09:55.115Z,38.30
2023-04-13T18:12:23.323Z,38.44
2023-04-13T18:14:51.218Z,38.28
2023-04-13T18:17:21.684Z,38.76
2023-04-13T18:19:54.702Z,38.13
2023-04-13T18:22:31.182Z,38.51
2023-04-13T18:25:04.402Z,39.29
2023-04-13T18:27:32.166Z,39.73
2023-04-13T18:30:15.451Z,40.21
2023-04-13T18:32:43.301Z,40.77
2023-04-13T18:35:13.464Z,41.59
2023-04-13T18:37:41.247Z,41.94
2023-04-13T18:40:10.947Z,42.32
2023-04-13T18:42:42.916Z,42.69
2023-04-13T18:45:11.598Z,42.99
2023-04-13T18:47:39.881Z,43.52
2023-04-13T18:50:09.130Z,43.65
2023-04-13T18:52:38.473Z,44.19
2023-04-13T18:55:07.410Z,44.52
2023-04-13T18:57:38.174Z,44.93
2023-04-13T19:00:07.592Z,44.91
2023-04-13T19:02:35.936Z,45.12
2023-04-13T19:05:04.474Z,45.68
2023-04-13T19:07:32.649Z,46.43
2023-04-13T19:10:02.154Z,46.59
2023-04-13T19:12:32.083Z,47.38
2023-04-13T19:15:00.077Z,47.34
2023-04-13T19:17:28.742Z,48.07
2023-04-13T19:20:03.743Z,48.63
2023-04-13T19:22:31.675Z,48.89
2023-04-13T19:25:03.863Z,49.52
2023-04-13T19:27:32.368Z,49.62
2023-04-13T19:30:00.695Z,49.63
2023-04-13T19:32:30.456Z,49.60
2023-04-13T19:34:58.479Z,50.27
2023-04-13T19:37:28.395Z,50.27
2023-04-13T19:39:56.382Z,50.98
2023-04-13T19:42:26.562Z,50.74
2023-04-13T19:44:59.864Z,51.08
2023-04-13T19:47:30.290Z,51.26
2023-04-13T19:49:58.749Z,51.80
2023-04-13T19:52:26.951Z,51.95
2023-04-13T19:54:54.958Z,51.31
2023-04-13T19:57:22.963Z,51.54
2023-04-13T19:59:52.715Z,52.29
2023-04-13T20:02:21.099Z,52.31
2023-04-13T20:04:50.248Z,52.17
2023-04-13T20:07:18.482Z,51.21
2023-04-13T20:09:47.055Z,50.82
2023-04-13T20:12:15.055Z,50.37
2023-04-13T20:14:45.838Z,50.11
2023-04-13T20:17:16.333Z,49.32
2023-04-13T20:19:44.749Z,49.45
2023-04-13T20:22:13.491Z,49.68
2023-04-13T20:24:41.521Z,49.47
2023-04-13T20:27:12.350Z,49.00
2023-04-13T20:29:40.362Z,49.91
2023-04-13T20:32:08.317Z,49.65
2023-04-13T20:34:38.206Z,49.87
2023-04-13T20:37:10.375Z,50.17
2023-04-13T20:39:49.850Z,50.42
2023-04-13T20:42:19.410Z,50.80
2023-04-13T20:44:49.226Z,50.66
2023-04-13T20:47:17.493Z,50.77
2023-04-13T20:49:52.393Z,50.98
2023-04-13T20:52:20.495Z,51.09
2023-04-13T20:54:48.482Z,51.22
2023-04-13T20:57:17.215Z,51.13
2023-04-13T20:59:45.277Z,51.37
2023-04-13T21:02:14.520Z,51.51
2023-04-13T21:04:42.753Z,51.79
2023-04-13T21:07:12.241Z,52.04
2023-04-13T21:09:40.060Z,52.28
2023-04-13T21:12:10.969Z,52.40
2023-04-13T21:14:38.725Z,52.61
2023-04-13T21:17:06.635Z,53.02
2023-04-13T21:19:36.875Z,53.42
2023-04-13T21:22:05.564Z,53.32
2023-04-13T21:24:34.831Z,53.88
2023-04-13T21:27:02.893Z,53.87
2023-04-13T21:29:30.773Z,54.74
2023-04-13T21:31:59.003Z,54.59
2023-04-13T21:34:27.245Z,54.91
2023-04-13T21:36:55.479Z,54.82
2023-04-13T21:39:23.457Z,55.08
2023-04-13T21:41:52.656Z,54.95
2023-04-13T21:44:29.301Z,54.93
2023-04-13T21:46:58.446Z,54.83
2023-04-13T21:49:26.401Z,54.92
2023-04-13T21:51:54.194Z,54.86
2023-04-13T21:54:22.070Z,55.45
2023-04-13T21:56:50.154Z,55.47
2023-04-13T21:59:19.337Z,55.46
2023-04-13T22:01:47.342Z,55.06
2023-04-13T22:04:15.382Z,55.50
2023-04-13T22:06:43.276Z,55.53
2023-04-13T22:09:12.294Z,55.33
2023-04-13T22:11:41.035Z,55.92
2023-04-13T22:14:08.920Z,56.01
2023-04-13T22:16:38.303Z,56.32
2023-04-13T22:19:06.218Z,56.33
2023-04-13T22:21:36.755Z,55.71
2023-04-13T22:24:04.849Z,55.87
2023-04-13T22:26:32.570Z,55.75
2023-04-13T22:29:00.522Z,55.05
2023-04-13T22:31:28.532Z,55.02
2023-04-13T22:33:57.809Z,54.99
2023-04-13T22:36:25.561Z,55.25
2023-04-13T22:38:54.749Z,55.57
2023-04-13T22:41:22.728Z,55.21
2023-04-13T22:43:50.556Z,55.87
2023-04-13T22:46:18.570Z,55.81
2023-04-13T22:48:46.568Z,55.42
2023-04-13T22:51:16.367Z,56.09
2023-04-13T22:53:44.274Z,56.06
2023-04-13T22:56:12.116Z,56.29
2023-04-13T22:58:39.926Z,57.01
2023-04-13T23:01:07.665Z,56.39
2023-04-13T23:03:35.972Z,56.90
2023-04-13T23:06:05.506Z,56.82
2023-04-13T23:08:34.767Z,56.63
2023-04-13T23:11:08.690Z,56.94
2023-04-13T23:13:36.893Z,57.63
2023-04-13T23:18:57.025Z,57.27
2023-04-13T23:21:24.773Z,57.35
2023-04-13T23:23:54.090Z,57.45
2023-04-13T23:26:21.928Z,57.66
2023-04-13T23:28:49.772Z,57.72
2023-04-13T23:31:17.612Z,57.58
2023-04-13T23:33:45.546Z,57.53
2023-04-13T23:36:13.535Z,57.47
2023-04-13T23:38:41.241Z,57.43
2023-04-13T23:41:10.468Z,57.59
2023-04-13T23:43:38.240Z,57.34
2023-04-13T23:46:06.119Z,57.95
2023-04-13T23:48:33.920Z,57.85
2023-04-13T23:51:01.714Z,57.80
2023-04-13T23:53:29.455Z,57.98
2023-04-13T23:55:57.250Z,57.81
2023-04-13T23:58:26.489Z,57.87
